Time;durP1;ratioP1;P1;durP2;ratioP2;P2;SDS_P1;SDS_P2;PMS_P1;PMS_P2;Temp;Humidity;BMP_temperature;BMP_pressure;BME280_temperature;BME280_humidity;BME280_pressure;Samples;Min_cycle;Max_cycle;Signal;HPM_P1;HPM_P2
2021/05/11 00:01:40;;;;;;;5.50;4.00;;;;;;;13.97;53.71;98652.53;124580;1104;64342;-83
2021/05/11 00:04:08;;;;;;;6.90;5.30;;;;;;;14.03;53.47;98653.83;124583;1096;64291;-84
2021/05/11 00:06:35;;;;;;;5.10;4.57;;;;;;;14.08;53.38;98645.39;124537;1104;64312;-84
2021/05/11 00:09:04;;;;;;;5.13;4.30;;;;;;;14.14;53.31;98647.53;124542;1104;64250;-83
2021/05/11 00:11:32;;;;;;;10.73;9.50;;;;;;;14.21;53.15;98651.38;124639;1104;64342;-84
2021/05/11 00:13:59;;;;;;;8.95;8.10;;;;;;;14.25;53.04;98640.27;124581;1096;64303;-83
2021/05/11 00:16:27;;;;;;;5.80;5.20;;;;;;;14.26;53.01;98639.27;124570;1104;64431;-83
2021/05/11 00:18:54;;;;;;;5.73;3.90;;;;;;;14.25;53.23;98640.27;124537;1096;64363;-83
2021/05/11 00:21:22;;;;;;;4.60;3.50;;;;;;;14.27;53.05;98637.46;124556;1104;64425;-84
2021/05/11 00:23:49;;;;;;;5.87;4.00;;;;;;;14.30;53.38;98638.99;124614;1104;64349;-84
2021/05/11 00:26:16;;;;;;;5.30;3.67;;;;;;;14.32;53.16;98640.55;124572;1096;64355;-84
2021/05/11 00:28:44;;;;;;;5.93;3.40;;;;;;;14.32;53.10;98637.88;124599;1096;64333;-84
2021/05/11 00:31:11;;;;;;;6.23;3.57;;;;;;;14.36;52.86;98636.64;124592;1096;64467;-84
2021/05/11 00:33:38;;;;;;;5.27;3.60;;;;;;;14.40;52.84;98639.88;124679;1104;64237;-83
2021/05/11 00:36:05;;;;;;;5.47;3.50;;;;;;;14.47;53.18;98633.00;124534;1104;64486;-83
2021/05/11 00:38:33;;;;;;;4.40;3.60;;;;;;;14.45;53.20;98643.01;124590;1096;64281;-83
2021/05/11 00:41:00;;;;;;;5.50;3.25;;;;;;;14.51;53.14;98642.48;124560;1096;64690;-84
2021/05/11 00:43:27;;;;;;;6.67;4.00;;;;;;;14.62;53.24;98638.88;124610;1104;64304;-83
2021/05/11 00:45:57;;;;;;;5.75;5.05;;;;;;;14.69;53.00;98632.83;124577;1104;64438;-84
2021/05/11 00:48:24;;;;;;;11.30;5.83;;;;;;;14.73;53.29;98628.03;124693;1104;64336;-83
2021/05/11 00:50:51;;;;;;;8.87;6.10;;;;;;;14.74;53.13;98623.50;124628;1104;64342;-83
2021/05/11 00:53:19;;;;;;;11.80;6.60;;;;;;;14.73;53.08;98616.45;124629;1104;64336;-83
2021/05/11 00:55:48;;;;;;;8.35;6.40;;;;;;;14.70;53.04;98621.10;124647;1096;64335;-83
2021/05/11 00:58:15;;;;;;;9.75;6.90;;;;;;;14.64;53.19;98620.79;124624;1104;64396;-84
2021/05/11 01:00:42;;;;;;;12.83;8.13;;;;;;;14.59;53.28;98620.38;124634;1104;64470;-83
2021/05/11 01:03:09;;;;;;;11.87;7.67;;;;;;;14.54;53.48;98623.47;124743;1104;64399;-83
2021/05/11 01:05:37;;;;;;;11.00;9.43;;;;;;;14.50;53.75;98622.00;124793;1104;64262;-83
2021/05/11 01:08:04;;;;;;;12.13;9.27;;;;;;;14.44;53.84;98620.72;124756;1096;64319;-84
2021/05/11 01:10:32;;;;;;;11.57;9.70;;;;;;;14.36;54.05;98609.83;124640;1104;64338;-83
2021/05/11 01:12:59;;;;;;;14.37;10.30;;;;;;;14.28;54.25;98601.62;124598;1096;64920;-84
2021/05/11 01:15:26;;;;;;;12.43;10.27;;;;;;;14.21;54.50;98614.70;124610;1104;64270;-84
2021/05/11 01:18:00;;;;;;;13.10;10.33;;;;;;;14.13;54.39;98609.17;124629;1104;64332;-83
2021/05/11 01:20:34;;;;;;;13.50;9.20;;;;;;;14.04;54.59;98604.63;124709;1096;64274;-84
2021/05/11 01:25:39;;;;;;;14.37;10.20;;;;;;;13.86;55.11;98604.40;124883;1104;64498;-83
2021/05/11 02:25:08;;;;;;;10.13;7.60;;;;;;;13.33;57.50;98559.84;124575;1104;64441;-84
2021/05/11 02:27:37;;;;;;;20.27;12.07;;;;;;;13.31;57.60;98567.14;124670;1096;64249;-84
2021/05/11 02:30:09;;;;;;;12.70;9.13;;;;;;;13.33;58.17;98561.67;124641;1096;64336;-84
2021/05/11 02:32:39;;;;;;;11.50;8.15;;;;;;;13.34;58.00;98558.00;124539;1104;64431;-83
2021/05/11 02:35:09;;;;;;;11.65;8.55;;;;;;;13.32;58.01;98555.48;124700;1096;64309;-83
2021/05/11 02:37:36;;;;;;;12.15;8.43;;;;;;;13.31;57.96;98563.63;124711;1104;64256;-83
2021/05/11 02:40:06;;;;;;;11.50;8.30;;;;;;;13.26;58.08;98561.33;124608;1104;64265;-83
2021/05/11 02:42:34;;;;;;;12.23;8.60;;;;;;;13.22;58.05;98556.33;124650;1104;64406;-83
2021/05/11 02:45:03;;;;;;;13.05;9.45;;;;;;;13.18;58.27;98558.42;124573;1104;64403;-83
2021/05/11 02:47:30;;;;;;;15.90;9.67;;;;;;;13.13;58.29;98561.48;124618;1096;64342;-83
2021/05/11 02:50:04;;;;;;;12.03;9.10;;;;;;;13.08;58.53;98554.83;124604;1096;64306;-84
2021/05/11 02:52:31;;;;;;;11.10;8.40;;;;;;;13.05;58.76;98555.09;124613;1104;64875;-82
2021/05/11 02:54:58;;;;;;;10.70;8.55;;;;;;;13.02;58.86;98566.89;124623;1096;64512;-83
2021/05/11 02:57:25;;;;;;;12.33;8.90;;;;;;;12.99;58.92;98561.81;124622;1096;64338;-84
2021/05/11 02:59:53;;;;;;;11.10;8.23;;;;;;;12.97;59.11;98561.08;124628;1096;64329;-83
2021/05/11 03:02:20;;;;;;;10.50;8.37;;;;;;;12.99;59.10;98564.48;124733;1104;64342;-84
2021/05/11 03:04:47;;;;;;;13.63;8.30;;;;;;;13.00;59.15;98565.33;124653;1104;64325;-83
2021/05/11 03:07:14;;;;;;;14.53;8.37;;;;;;;13.01;59.13;98569.72;124736;1096;64505;-83
2021/05/11 03:09:41;;;;;;;9.67;7.90;;;;;;;12.99;59.21;98568.99;124752;1104;64335;-83
2021/05/11 03:12:09;;;;;;;13.80;8.23;;;;;;;12.96;59.41;98564.75;124637;1096;64677;-83
2021/05/11 03:14:36;;;;;;;14.03;8.23;;;;;;;12.94;59.45;98572.05;124626;1096;64329;-83
2021/05/11 03:17:03;;;;;;;13.17;7.90;;;;;;;12.93;59.31;98567.68;124781;1096;64336;-83
2021/05/11 03:19:30;;;;;;;11.00;8.50;;;;;;;12.91;59.43;98567.80;124582;1104;64386;-83
2021/05/11 03:21:58;;;;;;;16.37;8.47;;;;;;;12.92;59.65;98563.29;124758;1104;64395;-83
2021/05/11 03:24:25;;;;;;;14.23;8.30;;;;;;;12.93;59.76;98559.66;124758;1104;64352;-83
2021/05/11 03:26:52;;;;;;;13.30;7.85;;;;;;;12.96;59.95;98554.89;124619;1096;64380;-84
2021/05/11 03:29:19;;;;;;;15.33;8.63;;;;;;;13.31;59.96;98558.27;124547;1096;64262;-83
2021/05/11 03:31:47;;;;;;;12.50;8.13;;;;;;;14.04;58.97;98551.89;124655;1104;64479;-83
2021/05/11 03:34:14;;;;;;;10.97;7.97;;;;;;;14.61;58.05;98554.02;124577;1104;64242;-83
2021/05/11 03:36:41;;;;;;;11.33;8.13;;;;;;;14.95;57.61;98554.47;124572;1104;64364;-83
2021/05/11 03:39:08;;;;;;;11.37;7.63;;;;;;;15.53;56.57;98542.81;124588;1104;64332;-83
2021/05/11 03:42:01;;;;;;;16.50;9.05;;;;;;;16.06;55.65;98539.58;124556;1104;64387;-83
2021/05/11 03:44:26;;;;;;;12.00;8.13;;;;;;;16.70;54.70;98540.46;124619;1104;64441;-83
2021/05/11 03:46:54;;;;;;;11.90;7.97;;;;;;;17.13;53.34;98530.78;124545;1104;64466;-83
2021/05/11 03:49:21;;;;;;;10.10;7.40;;;;;;;17.63;52.79;98535.52;124595;1096;64438;-83
2021/05/11 03:51:48;;;;;;;10.25;8.60;;;;;;;18.16;52.20;98528.23;124750;1104;64358;-83
2021/05/11 03:54:16;;;;;;;10.43;8.27;;;;;;;18.61;50.97;98524.33;124723;1096;64287;-83
2021/05/11 03:56:43;;;;;;;15.13;8.57;;;;;;;19.08;49.95;98519.19;124659;1096;64590;-83
2021/05/11 03:59:10;;;;;;;9.87;7.70;;;;;;;19.53;49.82;98517.80;124526;1104;64472;-82
2021/05/11 04:01:37;;;;;;;10.17;8.13;;;;;;;20.01;48.11;98509.79;124768;1104;64367;-82
2021/05/11 04:04:04;;;;;;;9.90;7.57;;;;;;;20.30;47.17;98510.98;124718;1096;64211;-83
2021/05/11 04:06:32;;;;;;;12.13;8.70;;;;;;;20.67;46.80;98510.33;124681;1104;64283;-82
2021/05/11 04:09:07;;;;;;;9.90;7.13;;;;;;;21.08;45.92;98510.02;124622;1104;64518;-82
2021/05/11 04:16:39;;;;;;;9.70;8.30;;;;;;;21.77;43.49;98517.20;124592;1104;64332;-82
2021/05/11 04:19:07;;;;;;;9.58;8.10;;;;;;;21.98;43.21;98508.32;124789;1104;64338;-82
2021/05/11 04:21:35;;;;;;;9.83;7.60;;;;;;;22.16;42.72;98513.37;124585;1104;64326;-82
2021/05/11 04:24:03;;;;;;;8.93;7.87;;;;;;;22.33;42.26;98510.30;124677;1104;64562;-82
2021/05/11 04:26:32;;;;;;;12.03;8.43;;;;;;;22.37;42.25;98501.77;124628;1104;64339;-82
2021/05/11 04:28:59;;;;;;;10.98;7.68;;;;;;;22.41;41.40;98498.48;124520;1096;64313;-82
2021/05/11 04:31:26;;;;;;;10.27;7.73;;;;;;;22.62;41.16;98497.68;124601;1096;64329;-83
2021/05/11 04:33:56;;;;;;;8.20;7.00;;;;;;;22.77;41.19;98497.61;124555;1104;64290;-83
2021/05/11 04:36:24;;;;;;;9.17;8.03;;;;;;;22.97;41.00;98495.98;124668;1096;64266;-82
2021/05/11 04:38:51;;;;;;;11.90;7.50;;;;;;;23.35;40.43;98500.27;124575;1104;64342;-83
2021/05/11 04:41:18;;;;;;;10.83;7.73;;;;;;;23.56;38.85;98497.50;124531;1096;64389;-82
2021/05/11 04:43:48;;;;;;;9.95;7.60;;;;;;;23.51;39.22;98493.70;124546;1104;64361;-82
2021/05/11 04:48:49;;;;;;;;;;;;;;;23.76;38.77;98494.13;124671;1104;64333;-82
2021/05/11 04:51:21;;;;;;;8.60;6.93;;;;;;;23.97;38.80;98498.66;124753;1096;64306;-82
2021/05/11 04:53:48;;;;;;;7.57;6.87;;;;;;;24.21;37.84;98498.14;124549;1096;64283;-82
2021/05/11 04:56:16;;;;;;;7.55;6.00;;;;;;;24.26;37.80;98500.27;124566;1096;64333;-83
2021/05/11 04:58:43;;;;;;;8.30;7.00;;;;;;;24.36;37.35;98498.00;124521;1104;64352;-82
2021/05/11 05:01:10;;;;;;;9.97;7.40;;;;;;;24.49;37.26;98500.81;124583;1096;64419;-82
2021/05/11 05:03:41;;;;;;;6.77;5.97;;;;;;;24.55;37.08;98499.14;124603;1096;64337;-82
2021/05/11 05:06:09;;;;;;;13.53;6.93;;;;;;;24.63;36.82;98493.51;124646;1104;64339;-82
2021/05/11 05:08:36;;;;;;;8.50;5.93;;;;;;;24.72;36.16;98483.25;124737;1096;64353;-82
2021/05/11 05:11:03;;;;;;;7.87;6.27;;;;;;;24.72;36.31;98488.70;124615;1096;64306;-83
2021/05/11 05:13:31;;;;;;;8.10;6.40;;;;;;;24.73;36.00;98480.33;124652;1096;64329;-82
2021/05/11 05:15:59;;;;;;;7.27;5.90;;;;;;;24.69;35.65;98476.33;124766;1096;64336;-82
2021/05/11 05:18:28;;;;;;;7.55;5.55;;;;;;;24.70;36.00;98478.02;124708;1104;64287;-84
2021/05/11 05:20:57;;;;;;;8.37;6.50;;;;;;;24.72;35.52;98478.66;124622;1104;64339;-84
2021/05/11 05:23:34;;;;;;;12.03;6.50;;;;;;;24.59;35.49;98473.16;124643;1104;64425;-83
2021/05/11 05:28:28;;;;;;;6.43;5.63;;;;;;;24.57;35.88;98482.61;124628;1104;64766;-84
2021/05/11 05:31:00;;;;;;;9.67;5.67;;;;;;;24.40;35.57;98471.19;124622;1096;64329;-84
2021/05/11 05:33:33;;;;;;;11.37;5.33;;;;;;;24.39;35.67;98470.36;124537;1104;64338;-84
2021/05/11 05:36:01;;;;;;;7.33;5.27;;;;;;;24.52;35.62;98478.59;124651;1104;64374;-84
2021/05/11 05:38:30;;;;;;;6.87;5.20;;;;;;;24.75;35.71;98466.52;124615;1104;64422;-83
2021/05/11 05:41:09;;;;;;;6.80;4.93;;;;;;;24.83;35.38;98466.31;124574;1104;64339;-84
2021/05/11 05:43:36;;;;;;;6.80;4.95;;;;;;;25.00;35.27;98468.63;124603;1096;64256;-84
2021/05/11 05:46:03;;;;;;;6.50;5.33;;;;;;;25.06;35.03;98462.34;124653;1096;64339;-84
2021/05/11 05:48:31;;;;;;;5.70;4.47;;;;;;;25.10;34.75;98463.61;124606;1104;64256;-84
2021/05/11 05:51:00;;;;;;;5.97;4.57;;;;;;;25.10;34.69;98463.61;124576;1104;64379;-84
2021/05/11 05:53:36;;;;;;;5.20;4.67;;;;;;;25.16;35.01;98463.63;124540;1104;64326;-84
2021/05/11 05:56:05;;;;;;;6.43;4.50;;;;;;;25.31;34.81;98457.97;124652;1104;64332;-84
2021/05/11 05:58:33;;;;;;;5.88;5.20;;;;;;;25.45;34.49;98464.25;124664;1096;64329;-84
2021/05/11 06:01:06;;;;;;;7.13;5.13;;;;;;;25.59;34.81;98467.79;124595;1104;64303;-83
2021/05/11 06:03:37;;;;;;;7.03;4.93;;;;;;;25.75;34.81;98458.31;124566;1104;64438;-84
2021/05/11 06:06:07;;;;;;;6.57;4.93;;;;;;;25.92;34.99;98462.30;124620;1104;64332;-83
2021/05/11 06:08:36;;;;;;;7.97;4.90;;;;;;;26.00;34.37;98464.80;124654;1096;64262;-84
2021/05/11 06:14:15;;;;;;;6.25;4.30;;;;;;;26.14;34.52;98456.55;124576;1104;64281;-84
2021/05/11 06:19:15;;;;;;;7.77;4.70;;;;;;;26.21;34.09;98451.91;124818;1096;64326;-85
2021/05/11 06:21:43;;;;;;;23.93;5.97;;;;;;;26.16;34.13;98446.26;124557;1104;64405;-84
2021/05/11 06:24:10;;;;;;;6.77;4.47;;;;;;;26.12;34.10;98453.19;124588;1104;63298;-87
2021/05/11 06:26:37;;;;;;;6.83;4.30;;;;;;;26.17;34.24;98446.05;124644;1104;64258;-85
2021/05/11 06:29:07;;;;;;;3.63;3.30;;;;;;;26.21;34.20;98449.18;124538;1096;64469;-85
2021/05/11 06:31:35;;;;;;;4.40;3.60;;;;;;;26.22;33.80;98442.65;124661;1104;64680;-83
2021/05/11 06:34:04;;;;;;;9.45;4.65;;;;;;;26.18;33.91;98441.42;124790;1104;64249;-83
2021/05/11 06:36:31;;;;;;;5.77;3.40;;;;;;;26.18;33.96;98433.23;124792;1104;64329;-83
2021/05/11 06:38:58;;;;;;;4.70;3.60;;;;;;;26.21;34.32;98436.35;124646;1104;64461;-83
2021/05/11 06:41:27;;;;;;;7.03;4.27;;;;;;;26.33;34.13;98432.93;124807;1104;64378;-84
2021/05/11 06:44:03;;;;;;;7.33;3.87;;;;;;;26.37;34.24;98437.75;124719;1104;64345;-84
2021/05/11 06:53:55;;;;;;;4.83;4.07;;;;;;;26.37;34.67;98434.19;124607;1104;64426;-84
2021/05/11 06:56:23;;;;;;;22.27;5.20;;;;;;;26.34;34.46;98424.53;124591;1096;64403;-84
2021/05/11 06:58:50;;;;;;;9.27;4.97;;;;;;;26.27;34.31;98426.45;124613;1104;64409;-84
2021/05/11 07:01:21;;;;;;;5.53;4.20;;;;;;;26.21;34.56;98421.86;124581;1096;64281;-84
2021/05/11 07:03:49;;;;;;;7.95;4.30;;;;;;;26.03;34.58;98415.20;124541;1104;64380;-84
2021/05/11 07:06:18;;;;;;;6.43;4.93;;;;;;;25.81;35.13;98419.27;124629;1104;64489;-83
2021/05/11 07:08:50;;;;;;;9.80;4.00;;;;;;;25.45;35.51;98425.22;124566;1104;64323;-84
2021/05/11 07:13:48;;;;;;;6.40;4.17;;;;;;;24.93;37.00;98417.65;124589;1104;64355;-84
2021/05/11 07:16:16;;;;;;;5.83;3.63;;;;;;;24.84;37.41;98416.19;124615;1096;64306;-84
2021/05/11 07:18:43;;;;;;;5.07;3.80;;;;;;;24.87;37.22;98414.94;124676;1104;64756;-83
2021/05/11 07:21:10;;;;;;;3.77;3.30;;;;;;;24.80;37.56;98423.09;124575;1104;64265;-84
2021/05/11 07:23:38;;;;;;;14.17;4.07;;;;;;;24.74;37.64;98415.76;124604;1104;64351;-84
2021/05/11 07:31:25;;;;;;;5.57;3.80;;;;;;;24.73;37.82;98411.37;124559;1104;64496;-84
2021/05/11 07:33:54;;;;;;;4.73;3.30;;;;;;;24.76;38.13;98413.67;124554;1104;65687;-84
2021/05/11 07:36:22;;;;;;;5.63;3.67;;;;;;;24.83;37.93;98413.66;124653;1104;64371;-84
2021/05/11 07:38:50;;;;;;;4.43;3.00;;;;;;;24.82;37.77;98412.83;124667;1104;64368;-84
2021/05/11 07:41:19;;;;;;;3.80;3.20;;;;;;;24.84;38.00;98410.73;124678;1104;64374;-83
2021/05/11 07:43:55;;;;;;;6.30;3.80;;;;;;;24.95;38.12;98415.56;124578;1096;64429;-83
2021/05/11 08:03:12;;;;;;;4.07;3.47;;;;;;;25.47;38.09;98393.11;124694;1096;64358;-85
2021/05/11 08:16:19;;;;;;;4.90;2.77;;;;;;;25.86;37.78;98388.59;125059;1104;64250;-84
2021/05/11 08:22:42;;;;;;;5.57;3.77;;;;;;;26.22;38.16;98391.58;112443;1090;64473;-89
2021/05/11 08:27:58;;;;;;;9.35;3.90;;;;;;;26.54;37.81;98385.34;125108;1101;64432;-86
2021/05/11 08:30:27;;;;;;;5.73;3.53;;;;;;;26.57;37.38;98380.28;124982;1101;64342;-87
2021/05/11 08:32:54;;;;;;;5.10;3.40;;;;;;;26.63;37.61;98373.09;124669;1102;64355;-84
2021/05/11 08:35:22;;;;;;;4.83;3.00;;;;;;;26.69;36.92;98370.30;124966;1096;64358;-88
2021/05/11 08:37:49;;;;;;;8.53;3.30;;;;;;;26.70;36.90;98366.52;125051;1101;64429;-88
2021/05/11 08:40:17;;;;;;;4.67;3.10;;;;;;;26.69;36.81;98369.47;124936;1096;64303;-86
2021/05/11 08:42:44;;;;;;;6.63;3.13;;;;;;;26.75;37.27;98376.77;124686;1103;64390;-85
2021/05/11 08:45:14;;;;;;;6.20;3.53;;;;;;;26.79;36.46;98368.98;124671;1096;64415;-79
2021/05/11 08:47:55;;;;;;;3.47;2.70;;;;;;;26.77;36.28;98368.36;124739;1101;64338;-79
2021/05/11 08:50:32;;;;;;;5.43;3.17;;;;;;;26.73;36.66;98367.14;124442;1104;64431;-79
2021/05/11 09:26:57;;;;;;;3.50;1.87;;;;;;;28.57;34.47;98376.28;124735;1097;64336;-79
2021/05/11 10:40:58;;;;;;;3.03;1.87;;;;;;;29.47;32.01;98344.17;124773;1101;64272;-78
2021/05/11 10:49:26;;;;;;;2.73;1.83;;;;;;;29.64;31.81;98325.03;124738;1101;64323;-78
2021/05/11 10:52:18;;;;;;;3.13;2.27;;;;;;;29.72;31.75;98320.02;124748;1101;64348;-78
2021/05/11 11:00:27;;;;;;;2.73;1.80;;;;;;;29.77;31.85;98322.03;124499;1102;64313;-79
2021/05/11 11:03:14;;;;;;;3.97;1.97;;;;;;;29.80;32.12;98323.46;124525;1104;64393;-79
2021/05/11 11:05:56;;;;;;;3.83;1.70;;;;;;;29.76;31.57;98314.89;124796;1096;64632;-78
2021/05/11 11:08:42;;;;;;;3.80;1.57;;;;;;;29.79;31.83;98324.55;124762;1101;64404;-79
2021/05/11 11:11:11;;;;;;;2.53;1.53;;;;;;;29.74;31.34;98317.03;124777;1096;64458;-78
2021/05/11 11:13:40;;;;;;;3.38;2.20;;;;;;;29.72;31.14;98314.52;124829;1101;64342;-79
2021/05/11 11:16:08;;;;;;;5.47;2.00;;;;;;;29.72;31.13;98311.77;124780;1101;64261;-79
2021/05/11 11:18:37;;;;;;;1.90;1.60;;;;;;;29.63;30.79;98317.88;124756;1101;64352;-78
2021/05/11 11:23:54;;;;;;;3.83;1.90;;;;;;;29.54;30.60;98307.28;124831;1097;64339;-78
2021/05/11 11:26:24;;;;;;;2.45;1.70;;;;;;;29.54;30.84;98311.91;124844;1101;64339;-78
2021/05/11 11:29:03;;;;;;;1.97;1.43;;;;;;;29.57;31.30;98305.95;124570;1096;64282;-78
2021/05/11 11:31:33;;;;;;;3.70;1.68;;;;;;;29.54;29.26;98295.43;124822;1096;64339;-80
2021/05/11 11:34:39;;;;;;;2.63;1.70;;;;;;;29.42;29.26;98289.16;124506;1104;64370;-79
2021/05/11 11:37:11;;;;;;;2.77;1.60;;;;;;;29.39;30.43;98295.96;124852;1101;64470;-79
2021/05/11 11:39:49;;;;;;;3.63;1.87;;;;;;;29.53;31.34;98288.28;124780;1096;64339;-78
2021/05/11 11:42:21;;;;;;;2.90;1.47;;;;;;;29.64;31.16;98303.06;124720;1101;64342;-79
2021/05/11 11:44:54;;;;;;;4.73;1.70;;;;;;;29.74;31.19;98286.83;124853;1101;64329;-80
2021/05/11 11:47:23;;;;;;;4.33;1.87;;;;;;;29.74;30.79;98289.57;124720;1096;64439;-79
2021/05/11 11:49:53;;;;;;;4.75;1.93;;;;;;;29.73;30.86;98283.25;124584;1101;64340;-80
2021/05/11 11:57:53;;;;;;;1.40;1.27;;;;;;;29.74;31.22;98278.58;124855;1097;64364;-80
2021/05/11 12:00:30;;;;;;;3.00;1.60;;;;;;;29.84;31.02;98280.70;124856;1097;64387;-79
2021/05/11 12:03:09;;;;;;;2.10;1.57;;;;;;;29.87;29.71;98277.46;124844;1097;64348;-80
2021/05/11 12:06:03;;;;;;;6.55;1.68;;;;;;;29.89;29.35;98262.41;124749;1101;64352;-77
2021/05/11 12:08:31;;;;;;;2.40;1.90;;;;;;;29.95;29.25;98257.84;124723;1101;64336;-82
2021/05/11 12:11:06;;;;;;;4.43;1.93;;;;;;;30.02;30.21;98268.66;124779;1101;64332;-79
2021/05/11 12:13:36;;;;;;;3.23;1.50;;;;;;;30.06;30.00;98262.43;124493;1101;64363;-78
2021/05/11 12:16:24;;;;;;;6.90;1.90;;;;;;;30.05;29.98;98248.95;124774;1096;64253;-78
2021/05/11 12:19:06;;;;;;;4.15;1.50;;;;;;;30.03;29.90;98248.36;124769;1101;64273;-78
2021/05/11 12:21:53;;;;;;;3.63;1.90;;;;;;;30.07;30.49;98246.77;124742;1101;64352;-78
2021/05/11 12:24:30;;;;;;;3.80;1.77;;;;;;;30.09;30.47;98234.45;124757;1097;64821;-78
2021/05/11 12:27:19;;;;;;;3.00;1.70;;;;;;;30.06;29.27;98228.63;124524;1102;64415;-78
2021/05/11 12:30:09;;;;;;;5.63;1.70;;;;;;;30.02;29.06;98235.69;124803;1101;64349;-78
2021/05/11 12:32:37;;;;;;;2.33;1.70;;;;;;;30.05;29.49;98233.30;124738;1097;64342;-78
2021/05/11 12:35:12;;;;;;;2.60;1.30;;;;;;;30.16;30.03;98229.64;124781;1101;64349;-78
2021/05/11 12:37:48;;;;;;;2.60;1.70;;;;;;;30.22;29.78;98226.98;124778;1096;64229;-78
2021/05/11 12:40:31;;;;;;;4.47;2.30;;;;;;;30.25;29.80;98227.33;124707;1101;64412;-78
2021/05/11 12:43:03;;;;;;;3.80;1.50;;;;;;;30.29;29.73;98223.02;124466;1096;64464;-78
2021/05/11 12:45:39;;;;;;;12.50;3.80;;;;;;;30.33;30.21;98220.59;124761;1096;64278;-78
2021/05/11 12:48:11;;;;;;;2.23;1.57;;;;;;;30.39;29.55;98225.94;124752;1101;64275;-78
2021/05/11 12:50:42;;;;;;;3.27;1.70;;;;;;;30.36;29.34;98215.45;124748;1097;64718;-78
2021/05/11 12:53:29;;;;;;;5.40;2.03;;;;;;;30.37;29.23;98210.78;124724;1097;64287;-78
2021/05/11 13:01:23;;;;;;;2.80;1.40;;;;;;;30.43;29.78;98201.52;124786;1101;64271;-78
2021/05/11 13:25:51;;;;;;;7.13;5.27;;;;;;;30.51;28.71;98164.52;124777;1101;64799;-79
2021/05/11 13:28:29;;;;;;;4.03;2.43;;;;;;;30.53;29.05;98170.61;124808;1101;64281;-79
2021/05/11 13:33:34;;;;;;;5.55;1.90;;;;;;;30.54;29.00;98162.08;124872;1096;64345;-79
2021/05/11 13:36:02;;;;;;;2.90;1.60;;;;;;;30.58;29.03;98152.26;124836;1101;64397;-79
2021/05/11 13:38:29;;;;;;;3.13;2.00;;;;;;;30.59;29.37;98153.91;124844;1101;64359;-79
2021/05/11 13:40:56;;;;;;;4.40;1.80;;;;;;;30.61;29.10;98149.00;124857;1101;64373;-79
2021/05/11 13:43:26;;;;;;;2.10;1.77;;;;;;;30.58;29.39;98151.43;124837;1101;64346;-79
2021/05/11 13:45:54;;;;;;;3.30;1.80;;;;;;;30.55;29.26;98149.19;124537;1101;64342;-79
2021/05/11 13:48:41;;;;;;;3.53;1.57;;;;;;;30.54;29.32;98148.33;124799;1101;64233;-79
2021/05/11 13:51:19;;;;;;;2.67;1.50;;;;;;;30.58;29.43;98149.51;124854;1101;64330;-79
2021/05/11 13:53:52;;;;;;;2.20;1.60;;;;;;;30.59;29.22;98142.08;124893;1101;64362;-79
2021/05/11 14:04:23;;;;;;;3.90;1.70;;;;;;;30.63;29.27;98121.25;124857;1101;64285;-80
2021/05/11 14:06:51;;;;;;;4.70;2.20;;;;;;;30.63;29.59;98124.00;124824;1096;64256;-79
2021/05/11 14:09:18;;;;;;;4.33;1.90;;;;;;;30.64;29.16;98109.15;124618;1101;64332;-79
2021/05/11 14:11:46;;;;;;;7.03;3.20;;;;;;;30.65;28.83;98108.09;124812;1101;64380;-79
2021/05/11 14:14:14;;;;;;;3.77;2.43;;;;;;;30.65;28.57;98099.83;124501;1096;64406;-78
2021/05/11 14:16:43;;;;;;;6.43;2.30;;;;;;;30.64;28.61;98100.91;124787;1096;64337;-79
2021/05/11 14:19:11;;;;;;;;;;;;;;;30.59;28.07;98098.08;124821;1097;64341;-78
2021/05/11 14:21:40;;;;;;;4.40;1.60;;;;;;;30.60;28.62;98086.02;124750;1097;64460;-78
2021/05/11 14:24:08;;;;;;;2.30;2.10;;;;;;;30.61;28.62;98090.41;124729;1101;64335;-79
2021/05/11 14:26:36;;;;;;;3.13;2.00;;;;;;;30.64;28.88;98084.40;124503;1096;64328;-78
2021/05/11 14:29:05;;;;;;;2.80;1.63;;;;;;;30.62;28.88;98087.42;124795;1101;64371;-79
2021/05/11 14:31:32;;;;;;;2.75;2.10;;;;;;;30.61;29.11;98085.73;124794;1096;64453;-78
2021/05/11 14:34:01;;;;;;;6.83;1.90;;;;;;;30.59;29.01;98084.33;124827;1097;64332;-79
2021/05/11 14:36:28;;;;;;;4.13;1.90;;;;;;;30.55;28.59;98083.19;124830;1097;64335;-79
2021/05/11 14:38:56;;;;;;;3.47;1.60;;;;;;;30.53;29.00;98083.44;124803;1096;64330;-79
2021/05/11 14:41:23;;;;;;;4.45;1.60;;;;;;;30.52;28.78;98083.70;124817;1101;64335;-79
2021/05/11 14:43:51;;;;;;;3.27;1.93;;;;;;;30.46;28.08;98079.20;124793;1101;64326;-82
2021/05/11 14:46:18;;;;;;;8.30;2.57;;;;;;;30.38;27.76;98078.55;124911;1096;64333;-79
2021/05/11 14:48:45;;;;;;;5.93;2.50;;;;;;;30.32;27.82;98086.98;124710;1101;64339;-80
2021/05/11 14:51:13;;;;;;;3.97;2.40;;;;;;;30.27;27.35;98078.66;124863;1101;64410;-80
2021/05/11 14:53:41;;;;;;;4.67;2.30;;;;;;;30.23;27.37;98083.84;124735;1096;64352;-80
2021/05/11 14:56:08;;;;;;;4.43;1.90;;;;;;;30.23;27.71;98082.95;124866;1101;64281;-80
2021/05/11 14:58:36;;;;;;;5.20;1.90;;;;;;;30.21;27.90;98080.48;124479;1104;64335;-80
2021/05/11 15:01:04;;;;;;;6.77;2.17;;;;;;;30.18;27.93;98083.73;124730;1101;64362;-81
2021/05/11 15:03:32;;;;;;;2.90;2.17;;;;;;;30.17;27.57;98074.63;124563;1096;64518;-80
2021/05/11 15:05:59;;;;;;;2.47;1.77;;;;;;;30.18;27.99;98073.56;124810;1101;64345;-80
2021/05/11 15:08:26;;;;;;;6.33;2.27;;;;;;;30.14;27.71;98066.89;124816;1101;64332;-80
2021/05/11 15:10:54;;;;;;;3.40;1.87;;;;;;;30.11;27.35;98067.41;124814;1097;64318;-79
2021/05/11 15:13:22;;;;;;;4.63;2.23;;;;;;;30.05;27.16;98071.17;124813;1101;64361;-79
2021/05/11 15:15:51;;;;;;;5.83;2.07;;;;;;;30.02;26.99;98068.07;124835;1096;64457;-79
2021/05/11 15:18:18;;;;;;;10.77;1.83;;;;;;;29.99;26.79;98069.44;124743;1097;64358;-79
2021/05/11 15:20:46;;;;;;;6.30;1.80;;;;;;;29.98;27.11;98062.26;124754;1097;64333;-79
2021/05/11 15:23:14;;;;;;;3.43;1.93;;;;;;;29.95;27.19;98063.59;124776;1096;64355;-80
2021/05/11 15:25:41;;;;;;;4.93;1.63;;;;;;;29.93;26.92;98056.69;124735;1101;64364;-80
2021/05/11 15:28:08;;;;;;;4.67;2.37;;;;;;;29.90;27.24;98060.77;124714;1096;64269;-80
2021/05/11 15:30:36;;;;;;;4.90;4.13;;;;;;;29.86;27.04;98047.77;124830;1101;64338;-80
2021/05/11 15:33:06;;;;;;;5.10;3.53;;;;;;;29.81;26.68;98048.55;124794;1096;64323;-80
2021/05/11 15:35:35;;;;;;;7.67;3.60;;;;;;;29.78;27.08;98040.81;124790;1096;64335;-79
2021/05/11 15:38:05;;;;;;;4.35;2.65;;;;;;;29.74;26.58;98040.46;124801;1101;64344;-80
2021/05/11 15:40:36;;;;;;;4.93;2.47;;;;;;;29.72;26.68;98042.62;124498;1104;64454;-80
2021/05/11 15:43:05;;;;;;;3.83;2.10;;;;;;;29.71;26.88;98040.14;124518;1096;64329;-79
2021/05/11 15:45:33;;;;;;;3.90;2.57;;;;;;;29.68;26.75;98029.66;124824;1097;64326;-79
2021/05/11 15:48:03;;;;;;;3.83;2.37;;;;;;;29.65;26.72;98035.63;124824;1097;64262;-81
2021/05/11 15:50:31;;;;;;;;;;;;;;;29.61;26.80;98038.02;124777;1097;64318;-79
2021/05/11 15:53:03;;;;;;;3.77;1.90;;;;;;;29.60;26.68;98030.05;124765;1101;64326;-80
2021/05/11 15:55:33;;;;;;;4.80;1.83;;;;;;;29.56;27.32;98029.69;124539;1101;64339;-79
2021/05/11 15:58:01;;;;;;;3.40;1.60;;;;;;;29.53;26.97;98025.53;124796;1097;64368;-80
2021/05/11 16:00:29;;;;;;;4.97;1.93;;;;;;;29.49;26.90;98020.78;124763;1101;64330;-80
2021/05/11 16:02:58;;;;;;;2.17;1.77;;;;;;;29.47;26.98;98028.45;124677;1097;64290;-80
2021/05/11 16:05:26;;;;;;;3.50;1.95;;;;;;;29.46;26.97;98019.36;124744;1101;64473;-80
2021/05/11 16:07:53;;;;;;;3.20;1.93;;;;;;;29.43;27.18;98019.03;124736;1101;64326;-80
2021/05/11 16:10:20;;;;;;;6.47;2.10;;;;;;;29.41;27.44;98018.45;124726;1097;64329;-79
2021/05/11 16:12:48;;;;;;;5.40;2.50;;;;;;;29.41;27.88;98008.33;124763;1102;64428;-79
2021/05/11 16:15:19;;;;;;;8.17;2.87;;;;;;;29.36;27.87;98021.95;124800;1101;64332;-79
2021/05/11 16:17:46;;;;;;;4.07;2.30;;;;;;;29.30;27.84;98011.95;124545;1101;64392;-79
2021/05/11 16:20:14;;;;;;;4.07;2.30;;;;;;;29.25;28.38;98017.34;124731;1101;64310;-79
2021/05/11 16:22:43;;;;;;;4.60;2.77;;;;;;;29.21;28.28;98021.69;124759;1101;64285;-79
2021/05/11 16:25:12;;;;;;;5.13;2.43;;;;;;;29.14;28.77;98010.02;124845;1097;64336;-80